createdAt,value
2023-02-14T00:00:06.226Z,100.00
2023-02-14T00:02:36.533Z,100.00
2023-02-14T00:05:06.651Z,100.00
2023-02-14T00:07:34.778Z,100.00
2023-02-14T00:10:02.964Z,100.00
2023-02-14T00:12:31.145Z,100.00
2023-02-14T00:15:17.068Z,100.00
2023-02-14T00:17:45.209Z,100.00
2023-02-14T00:20:14.873Z,100.00
2023-02-14T00:22:43.008Z,100.00
2023-02-14T00:25:11.421Z,100.00
2023-02-14T00:27:40.506Z,100.00
2023-02-14T00:30:10.351Z,100.00
2023-02-14T00:32:40.096Z,100.00
2023-02-14T00:35:09.498Z,100.00
2023-02-14T00:37:39.330Z,100.00
2023-02-14T00:40:08.710Z,100.00
2023-02-14T00:42:36.831Z,100.00
2023-02-14T00:45:05.279Z,100.00
2023-02-14T00:47:33.905Z,100.00
2023-02-14T00:50:03.071Z,100.00
2023-02-14T00:52:31.502Z,100.00
2023-02-14T00:55:00.995Z,100.00
2023-02-14T00:57:29.101Z,100.00
2023-02-14T00:59:58.916Z,100.00
2023-02-14T01:02:28.380Z,100.00
2023-02-14T01:04:56.486Z,100.00
2023-02-14T01:07:24.778Z,100.00
2023-02-14T01:09:52.941Z,100.00
2023-02-14T01:12:22.437Z,100.00
2023-02-14T01:14:50.582Z,100.00
2023-02-14T01:17:20.550Z,100.00
2023-02-14T01:19:48.908Z,100.00
2023-02-14T01:22:17.033Z,100.00
2023-02-14T01:24:45.428Z,100.00
2023-02-14T01:27:14.306Z,100.00
2023-02-14T01:29:43.871Z,100.00
2023-02-14T01:32:12.997Z,100.00
2023-02-14T01:34:41.365Z,100.00
2023-02-14T01:37:09.464Z,100.00
2023-02-14T01:39:37.667Z,100.00
2023-02-14T01:42:05.900Z,100.00
2023-02-14T01:45:02.318Z,100.00
2023-02-14T01:47:38.127Z,100.00
2023-02-14T01:50:10.646Z,100.00
2023-02-14T01:52:43.135Z,100.00
2023-02-14T01:55:16.781Z,100.00
2023-02-14T01:57:48.889Z,100.00
2023-02-14T02:00:37.433Z,100.00
2023-02-14T02:03:08.209Z,100.00
2023-02-14T02:05:40.768Z,100.00
2023-02-14T02:08:08.973Z,100.00
2023-02-14T02:10:37.194Z,100.00
2023-02-14T02:13:08.263Z,100.00
2023-02-14T02:15:45.594Z,100.00
2023-02-14T02:18:23.815Z,100.00
2023-02-14T02:21:28.471Z,100.00
2023-02-14T02:24:12.957Z,100.00
2023-02-14T02:27:08.410Z,100.00
2023-02-14T02:30:19.514Z,100.00
2023-02-14T02:33:20.190Z,100.00
2023-02-14T02:36:13.448Z,100.00
2023-02-14T02:38:56.607Z,100.00
2023-02-14T02:41:35.788Z,100.00
2023-02-14T02:44:14.334Z,100.00
2023-02-14T02:46:50.451Z,100.00
2023-02-14T02:49:58.858Z,100.00
2023-02-14T02:52:55.995Z,100.00
2023-02-14T02:55:29.653Z,100.00
2023-02-14T02:57:58.655Z,100.00
2023-02-14T03:00:27.564Z,100.00
2023-02-14T03:03:16.704Z,100.00
2023-02-14T03:05:45.372Z,100.00
2023-02-14T03:08:19.037Z,100.00
2023-02-14T03:10:47.632Z,100.00
2023-02-14T03:13:32.153Z,100.00
2023-02-14T03:16:26.122Z,100.00
2023-02-14T03:19:18.649Z,100.00
2023-02-14T03:21:54.841Z,100.00
2023-02-14T03:24:31.650Z,100.00
2023-02-14T03:27:07.456Z,100.00
2023-02-14T03:29:47.150Z,100.00
2023-02-14T03:32:20.521Z,100.00
2023-02-14T03:34:56.354Z,100.00
2023-02-14T03:37:29.589Z,100.00
2023-02-14T03:40:05.993Z,100.00
2023-02-14T03:42:38.808Z,100.00
2023-02-14T03:45:11.976Z,100.00
2023-02-14T03:47:43.496Z,100.00
2023-02-14T03:50:16.066Z,100.00
2023-02-14T03:52:46.164Z,100.00
2023-02-14T03:55:19.291Z,100.00
2023-02-14T03:57:54.089Z,100.00
2023-02-14T04:00:22.548Z,100.00
2023-02-14T04:02:55.776Z,100.00
2023-02-14T04:05:27.996Z,100.00
2023-02-14T04:07:59.463Z,100.00
2023-02-14T04:10:29.157Z,100.00
2023-02-14T04:12:57.346Z,100.00
2023-02-14T04:15:25.446Z,100.00
2023-02-14T04:18:10.791Z,100.00
2023-02-14T04:20:38.980Z,100.00
2023-02-14T04:23:07.080Z,100.00
2023-02-14T04:25:39.477Z,100.00
2023-02-14T04:28:07.629Z,100.00
2023-02-14T04:30:35.806Z,100.00
2023-02-14T04:33:04.819Z,100.00
2023-02-14T04:35:32.975Z,100.00
2023-02-14T04:38:01.866Z,100.00
2023-02-14T04:40:30.370Z,100.00
2023-02-14T04:43:00.648Z,100.00
2023-02-14T04:45:28.803Z,100.00
2023-02-14T04:47:56.982Z,100.00
2023-02-14T04:50:25.974Z,100.00
2023-02-14T04:52:54.599Z,100.00
2023-02-14T04:55:22.758Z,100.00
2023-02-14T04:57:50.902Z,100.00
2023-02-14T05:00:21.584Z,100.00
2023-02-14T05:02:49.693Z,100.00
2023-02-14T05:05:18.136Z,100.00
2023-02-14T05:07:47.885Z,100.00
2023-02-14T05:10:16.418Z,100.00
2023-02-14T05:12:44.622Z,100.00
2023-02-14T05:15:12.829Z,100.00
2023-02-14T05:17:42.348Z,100.00
2023-02-14T05:20:11.271Z,100.00
2023-02-14T05:22:39.384Z,100.00
2023-02-14T05:25:08.224Z,100.00
2023-02-14T05:27:36.399Z,100.00
2023-02-14T05:30:04.845Z,100.00
2023-02-14T05:32:32.992Z,100.00
2023-02-14T05:35:04.066Z,100.00
2023-02-14T05:37:32.259Z,100.00
2023-02-14T05:40:00.435Z,100.00
2023-02-14T05:42:28.577Z,100.00
2023-02-14T05:44:56.682Z,100.00
2023-02-14T05:47:24.874Z,100.00
2023-02-14T05:49:58.983Z,100.00
2023-02-14T05:52:31.112Z,100.00
2023-02-14T05:54:59.296Z,100.00
2023-02-14T05:57:27.419Z,100.00
2023-02-14T05:59:55.555Z,100.00
2023-02-14T06:02:23.920Z,100.00
2023-02-14T06:04:52.358Z,100.00
2023-02-14T06:07:20.576Z,100.00
2023-02-14T06:09:50.299Z,100.00
2023-02-14T06:12:18.420Z,100.00
2023-02-14T06:14:46.523Z,100.00
2023-02-14T06:17:14.618Z,100.00
2023-02-14T06:19:43.376Z,100.00
2023-02-14T06:22:11.605Z,100.00
2023-02-14T06:24:39.686Z,100.00
2023-02-14T06:27:09.219Z,100.00
2023-02-14T06:29:37.890Z,100.00
2023-02-14T06:32:07.236Z,100.00
2023-02-14T06:34:35.945Z,100.00
2023-02-14T06:37:04.136Z,100.00
2023-02-14T06:39:32.255Z,100.00
2023-02-14T06:42:00.508Z,100.00
2023-02-14T06:44:30.032Z,100.00
2023-02-14T06:46:58.189Z,100.00
2023-02-14T06:49:26.330Z,100.00
2023-02-14T06:51:54.428Z,100.00
2023-02-14T06:54:22.575Z,100.00
2023-02-14T06:56:50.781Z,100.00
2023-02-14T06:59:19.142Z,100.00
2023-02-14T07:01:48.789Z,100.00
2023-02-14T07:04:17.823Z,100.00
2023-02-14T07:06:46.278Z,100.00
2023-02-14T07:09:17.004Z,100.00
2023-02-14T07:11:45.646Z,100.00
2023-02-14T07:14:14.696Z,100.00
2023-02-14T07:16:42.849Z,100.00
2023-02-14T07:19:12.527Z,100.00
2023-02-14T07:21:40.756Z,100.00
2023-02-14T07:24:09.197Z,100.00
2023-02-14T07:26:37.353Z,100.00
2023-02-14T07:29:05.496Z,100.00
2023-02-14T07:31:34.881Z,100.00
2023-02-14T07:34:03.132Z,100.00
2023-02-14T07:36:32.695Z,100.00
2023-02-14T07:39:00.813Z,100.00
2023-02-14T07:41:29.053Z,98.96
2023-02-14T07:43:57.418Z,97.39
2023-02-14T07:46:25.774Z,97.45
2023-02-14T07:48:54.026Z,95.53
2023-02-14T07:51:22.206Z,95.17
2023-02-14T07:53:51.789Z,94.49
2023-02-14T07:56:19.900Z,93.84
2023-02-14T07:58:49.941Z,92.46
2023-02-14T08:01:18.644Z,90.96
2023-02-14T08:03:49.609Z,89.24
2023-02-14T08:06:17.930Z,86.92
2023-02-14T08:08:46.953Z,87.55
2023-02-14T08:11:36.482Z,84.91
2023-02-14T08:14:05.299Z,82.49
2023-02-14T08:16:34.733Z,82.69
2023-02-14T08:19:03.285Z,80.65
2023-02-14T08:21:32.147Z,77.66
2023-02-14T08:24:00.460Z,76.12
2023-02-14T08:26:30.280Z,75.43
2023-02-14T08:28:58.525Z,76.23
2023-02-14T08:31:35.641Z,74.97
2023-02-14T08:34:04.192Z,73.75
2023-02-14T08:36:32.362Z,71.75
2023-02-14T08:39:00.453Z,72.26
2023-02-14T08:41:30.024Z,71.66
2023-02-14T08:43:58.243Z,69.67
2023-02-14T08:46:26.470Z,69.16
2023-02-14T08:48:55.026Z,67.01
2023-02-14T08:51:23.890Z,66.33
2023-02-14T08:53:53.230Z,65.80
2023-02-14T08:56:22.809Z,64.67
2023-02-14T08:58:54.633Z,65.08
2023-02-14T09:01:22.950Z,64.94
2023-02-14T09:03:51.272Z,64.64
2023-02-14T09:06:19.538Z,62.13
2023-02-14T09:08:48.015Z,58.42
2023-02-14T09:11:19.524Z,59.50
2023-02-14T09:13:48.325Z,59.98
2023-02-14T09:16:20.130Z,60.77
2023-02-14T09:18:49.431Z,60.05
2023-02-14T09:21:21.074Z,57.69
2023-02-14T09:23:49.180Z,56.48
2023-02-14T09:26:18.415Z,56.73
2023-02-14T09:28:46.624Z,58.09
2023-02-14T09:31:16.590Z,56.95
2023-02-14T09:33:47.747Z,54.60
2023-02-14T09:36:15.904Z,52.86
2023-02-14T09:38:44.086Z,54.50
2023-02-14T09:41:33.269Z,53.28
2023-02-14T09:44:03.744Z,53.95
2023-02-14T09:46:38.180Z,54.29
2023-02-14T09:49:14.678Z,54.75
2023-02-14T09:51:49.488Z,52.93
2023-02-14T09:54:22.640Z,52.49
2023-02-14T09:56:58.012Z,51.54
2023-02-14T09:59:30.847Z,50.58
2023-02-14T10:02:04.465Z,49.41
2023-02-14T10:04:39.653Z,49.58
2023-02-14T10:07:17.658Z,47.69
2023-02-14T10:09:59.192Z,45.84
2023-02-14T10:12:33.075Z,46.98
2023-02-14T10:15:05.966Z,46.60
2023-02-14T10:17:41.899Z,46.52
2023-02-14T10:20:23.173Z,47.29
2023-02-14T10:22:59.507Z,47.66
2023-02-14T10:25:30.457Z,47.90
2023-02-14T10:28:02.489Z,46.06
2023-02-14T10:30:39.777Z,46.24
2023-02-14T10:33:16.748Z,46.76
2023-02-14T10:35:49.814Z,42.58
2023-02-14T10:38:29.552Z,43.96
2023-02-14T10:41:11.561Z,44.58
2023-02-14T10:43:49.168Z,43.26
2023-02-14T10:46:28.742Z,42.32
2023-02-14T10:49:05.004Z,41.33
2023-02-14T10:51:42.355Z,39.28
2023-02-14T10:54:19.996Z,41.04
2023-02-14T10:56:53.159Z,38.09
2023-02-14T10:59:25.312Z,38.96
2023-02-14T11:01:55.786Z,41.20
2023-02-14T11:04:26.147Z,40.29
2023-02-14T11:06:55.661Z,40.53
2023-02-14T11:09:23.790Z,39.51
2023-02-14T11:11:54.475Z,39.81
2023-02-14T11:14:26.465Z,38.06
2023-02-14T11:16:55.210Z,39.27
2023-02-14T11:19:27.034Z,38.91
2023-02-14T11:21:58.745Z,39.70
2023-02-14T11:24:30.405Z,40.81
2023-02-14T11:27:01.016Z,42.29
2023-02-14T11:29:32.145Z,39.69
2023-02-14T11:32:09.340Z,38.85
2023-02-14T11:34:40.296Z,40.19
2023-02-14T11:37:27.243Z,38.96
2023-02-14T11:39:57.850Z,40.10
2023-02-14T11:42:51.676Z,39.36
2023-02-14T11:45:33.210Z,39.21
2023-02-14T11:48:24.799Z,37.07
2023-02-14T11:51:04.307Z,36.81
2023-02-14T11:53:45.805Z,38.47
2023-02-14T11:56:14.902Z,35.81
2023-02-14T11:58:51.237Z,36.55
2023-02-14T12:01:25.319Z,37.93
2023-02-14T12:03:55.814Z,37.00
2023-02-14T12:06:26.054Z,36.92
2023-02-14T12:09:12.835Z,37.56
2023-02-14T12:11:41.298Z,35.92
2023-02-14T12:14:22.282Z,36.35
2023-02-14T12:16:57.702Z,35.77
2023-02-14T12:19:34.135Z,33.34
2023-02-14T12:22:05.413Z,34.53
2023-02-14T12:24:39.471Z,38.50
2023-02-14T12:27:20.128Z,36.81
2023-02-14T12:29:53.912Z,34.51
2023-02-14T12:32:24.550Z,35.66
2023-02-14T12:34:58.347Z,35.63
2023-02-14T12:37:39.850Z,36.67
2023-02-14T12:40:19.667Z,38.53
2023-02-14T12:43:01.975Z,38.28
2023-02-14T12:45:48.795Z,38.16
2023-02-14T12:48:31.285Z,37.21
2023-02-14T12:51:07.246Z,38.13
2023-02-14T12:53:52.421Z,39.38
2023-02-14T12:56:33.783Z,39.45
2023-02-14T12:59:13.366Z,39.11
2023-02-14T13:02:05.131Z,37.93
2023-02-14T13:04:57.937Z,41.52
2023-02-14T13:07:51.283Z,39.26
2023-02-14T13:10:31.267Z,39.28
2023-02-14T13:13:08.278Z,38.72
2023-02-14T13:15:46.581Z,40.86
2023-02-14T13:18:19.776Z,40.41
2023-02-14T13:20:53.258Z,40.85
2023-02-14T13:23:25.822Z,41.28
2023-02-14T13:25:59.948Z,40.45
2023-02-14T13:28:32.690Z,39.34
2023-02-14T13:31:02.101Z,39.15
2023-02-14T13:33:36.506Z,39.54
2023-02-14T13:36:09.246Z,40.97
2023-02-14T13:38:44.863Z,41.81
2023-02-14T13:41:15.208Z,41.65
2023-02-14T13:43:56.400Z,40.56
2023-02-14T13:46:50.373Z,40.95
2023-02-14T13:49:49.498Z,39.51
2023-02-14T13:52:45.897Z,41.00
2023-02-14T13:55:18.991Z,41.07
2023-02-14T13:57:48.026Z,41.11
2023-02-14T14:00:48.116Z,41.36
2023-02-14T14:03:37.300Z,41.00
2023-02-14T14:06:07.782Z,41.31
2023-02-14T14:08:41.623Z,41.59
2023-02-14T14:11:35.251Z,43.17
2023-02-14T14:14:05.446Z,43.01
2023-02-14T14:16:36.758Z,42.93
2023-02-14T14:19:11.692Z,44.72
2023-02-14T14:21:43.616Z,43.73
2023-02-14T14:24:22.874Z,44.11
2023-02-14T14:26:54.045Z,42.88
2023-02-14T14:29:28.413Z,43.17
2023-02-14T14:31:58.695Z,44.65
2023-02-14T14:34:28.825Z,45.14
2023-02-14T14:37:04.760Z,43.83
2023-02-14T14:39:36.377Z,44.26
2023-02-14T14:42:15.068Z,44.97
2023-02-14T14:44:48.416Z,46.47
2023-02-14T14:47:21.771Z,46.10
2023-02-14T14:49:50.107Z,45.33
2023-02-14T14:52:31.639Z,45.35
2023-02-14T14:55:00.831Z,46.08
2023-02-14T14:57:29.225Z,46.50
2023-02-14T15:00:19.881Z,47.69
2023-02-14T15:03:05.146Z,48.13
2023-02-14T15:05:36.624Z,48.67
2023-02-14T15:08:21.373Z,48.83
2023-02-14T15:10:54.412Z,50.32
2023-02-14T15:13:50.103Z,51.79
2023-02-14T15:16:24.333Z,53.24
2023-02-14T15:18:57.351Z,54.20
2023-02-14T15:21:25.745Z,54.84
2023-02-14T15:23:55.143Z,55.52
2023-02-14T15:26:28.476Z,55.86
2023-02-14T15:28:59.062Z,56.10
2023-02-14T15:31:31.870Z,56.68
2023-02-14T15:34:03.110Z,57.37
2023-02-14T15:36:32.275Z,57.24
2023-02-14T15:39:02.025Z,58.52
2023-02-14T15:41:30.282Z,59.29
2023-02-14T15:43:58.977Z,59.59
2023-02-14T15:46:33.429Z,61.14
2023-02-14T15:49:09.378Z,61.68
2023-02-14T15:51:39.259Z,63.94
2023-02-14T15:54:18.191Z,64.63
2023-02-14T15:56:50.124Z,65.89
2023-02-14T15:59:21.036Z,67.59
2023-02-14T16:01:55.365Z,68.80
2023-02-14T16:04:28.085Z,69.70
2023-02-14T16:07:17.328Z,70.52
2023-02-14T16:09:45.864Z,72.95
2023-02-14T16:12:39.804Z,74.06
2023-02-14T16:15:19.423Z,74.49
2023-02-14T16:17:48.032Z,75.82
2023-02-14T16:20:30.093Z,76.83
2023-02-14T16:23:22.219Z,77.77
2023-02-14T16:25:51.768Z,79.75
2023-02-14T16:28:20.698Z,79.94
2023-02-14T16:30:55.165Z,81.10
2023-02-14T16:33:27.619Z,82.73
2023-02-14T16:36:02.394Z,83.21
2023-02-14T16:38:30.943Z,84.42
2023-02-14T16:41:01.536Z,83.92
2023-02-14T16:43:32.892Z,85.33
2023-02-14T16:46:01.684Z,86.99
2023-02-14T16:48:30.800Z,87.89
2023-02-14T16:51:01.570Z,87.56
2023-02-14T16:53:30.912Z,88.43
2023-02-14T16:55:59.590Z,89.38
2023-02-14T16:58:33.458Z,89.20
2023-02-14T17:01:03.133Z,91.09
2023-02-14T17:03:32.431Z,91.58
2023-02-14T17:06:04.207Z,92.84
2023-02-14T17:08:32.833Z,92.30
2023-02-14T17:11:02.557Z,93.30
2023-02-14T17:13:36.029Z,93.67
2023-02-14T17:16:06.464Z,94.37
2023-02-14T17:18:37.589Z,93.80
2023-02-14T17:21:09.296Z,95.75
2023-02-14T17:23:39.992Z,96.21
2023-02-14T17:26:09.744Z,95.79
2023-02-14T17:28:39.154Z,96.44
2023-02-14T17:31:08.642Z,98.03
2023-02-14T17:33:39.086Z,97.67
2023-02-14T17:36:18.508Z,98.45
2023-02-14T17:38:48.292Z,99.22
2023-02-14T17:41:19.603Z,99.41
2023-02-14T17:43:49.033Z,99.21
2023-02-14T17:46:21.712Z,100.00
2023-02-14T17:48:51.811Z,100.00
2023-02-14T17:51:23.616Z,100.00
2023-02-14T17:53:54.017Z,100.00
2023-02-14T17:56:24.778Z,100.00
2023-02-14T17:58:56.592Z,100.00
2023-02-14T18:01:28.400Z,100.00
2023-02-14T18:03:58.138Z,100.00
2023-02-14T18:06:29.228Z,100.00
2023-02-14T18:09:01.375Z,100.00
2023-02-14T18:11:31.575Z,100.00
2023-02-14T18:14:02.229Z,100.00
2023-02-14T18:16:42.341Z,100.00
2023-02-14T18:19:15.810Z,100.00
2023-02-14T18:21:47.793Z,100.00
2023-02-14T18:24:17.599Z,100.00
2023-02-14T18:26:47.400Z,100.00
2023-02-14T18:29:18.231Z,100.00
2023-02-14T18:31:48.455Z,100.00
2023-02-14T18:34:18.003Z,100.00
2023-02-14T18:36:49.802Z,100.00
2023-02-14T18:39:21.044Z,100.00
2023-02-14T18:41:51.366Z,100.00
2023-02-14T18:44:25.512Z,100.00
2023-02-14T18:46:55.856Z,100.00
2023-02-14T18:49:25.833Z,100.00
2023-02-14T18:51:57.738Z,100.00
2023-02-14T18:54:28.816Z,100.00
2023-02-14T18:56:59.205Z,100.00
2023-02-14T18:59:28.807Z,100.00
2023-02-14T19:01:58.927Z,100.00
2023-02-14T19:04:33.391Z,100.00
2023-02-14T19:07:07.416Z,100.00
2023-02-14T19:09:40.335Z,100.00
2023-02-14T19:12:13.279Z,100.00
2023-02-14T19:14:43.076Z,100.00
2023-02-14T19:17:13.712Z,100.00
2023-02-14T19:19:43.602Z,100.00
2023-02-14T19:22:14.832Z,100.00
2023-02-14T19:24:45.338Z,100.00
2023-02-14T19:27:17.983Z,100.00
2023-02-14T19:29:52.091Z,100.00
2023-02-14T19:32:22.617Z,100.00
2023-02-14T19:34:55.542Z,100.00
2023-02-14T19:37:29.403Z,100.00
2023-02-14T19:40:01.360Z,100.00
2023-02-14T19:42:30.980Z,100.00
2023-02-14T19:45:00.269Z,100.00
2023-02-14T19:47:45.855Z,100.00
2023-02-14T19:50:21.952Z,100.00
2023-02-14T19:52:54.237Z,100.00
2023-02-14T19:55:31.403Z,100.00
2023-02-14T19:58:01.799Z,100.00
2023-02-14T20:00:31.079Z,100.00
2023-02-14T20:03:03.376Z,100.00
2023-02-14T20:05:33.742Z,100.00
2023-02-14T20:08:05.782Z,100.00
2023-02-14T20:10:36.108Z,100.00
2023-02-14T20:13:11.801Z,100.00
2023-02-14T20:15:45.863Z,100.00
2023-02-14T20:18:16.339Z,100.00
2023-02-14T20:21:06.291Z,100.00
2023-02-14T20:23:38.947Z,100.00
2023-02-14T20:26:16.615Z,100.00
2023-02-14T20:28:51.410Z,100.00
2023-02-14T20:31:22.011Z,100.00
2023-02-14T20:33:56.093Z,100.00
2023-02-14T20:36:29.121Z,100.00
2023-02-14T20:39:05.822Z,100.00
2023-02-14T20:41:36.818Z,100.00
2023-02-14T20:44:09.698Z,100.00
2023-02-14T20:46:44.989Z,100.00
2023-02-14T20:49:15.772Z,100.00
2023-02-14T20:51:50.732Z,100.00
2023-02-14T20:54:24.544Z,100.00
2023-02-14T20:56:54.784Z,100.00
2023-02-14T20:59:29.016Z,100.00
2023-02-14T21:02:00.890Z,100.00
2023-02-14T21:04:31.649Z,100.00
2023-02-14T21:07:05.245Z,100.00
2023-02-14T21:09:38.399Z,100.00
2023-02-14T21:12:09.449Z,100.00
2023-02-14T21:14:41.487Z,100.00
2023-02-14T21:17:14.341Z,100.00
2023-02-14T21:19:44.240Z,100.00
2023-02-14T21:22:19.868Z,100.00
2023-02-14T21:24:51.699Z,100.00
2023-02-14T21:27:23.139Z,100.00
2023-02-14T21:29:53.175Z,100.00
2023-02-14T21:32:25.145Z,100.00
2023-02-14T21:34:54.396Z,100.00
2023-02-14T21:37:24.573Z,100.00
2023-02-14T21:39:57.224Z,100.00
2023-02-14T21:42:27.190Z,100.00
2023-02-14T21:45:14.202Z,100.00
2023-02-14T21:48:04.338Z,100.00
2023-02-14T21:50:33.132Z,100.00
2023-02-14T21:53:02.157Z,100.00
2023-02-14T21:55:33.163Z,100.00
2023-02-14T21:58:02.726Z,100.00
2023-02-14T22:00:32.964Z,100.00
2023-02-14T22:03:01.871Z,100.00
2023-02-14T22:05:30.494Z,100.00
2023-02-14T22:07:59.583Z,100.00
2023-02-14T22:10:28.006Z,100.00
2023-02-14T22:12:57.889Z,100.00
2023-02-14T22:15:26.559Z,100.00
2023-02-14T22:17:55.418Z,100.00
2023-02-14T22:20:23.900Z,100.00
2023-02-14T22:22:52.203Z,100.00
2023-02-14T22:25:20.348Z,100.00
2023-02-14T22:27:48.446Z,100.00
2023-02-14T22:30:18.265Z,100.00
2023-02-14T22:32:46.407Z,100.00
2023-02-14T22:35:14.561Z,100.00
2023-02-14T22:37:42.811Z,100.00
2023-02-14T22:40:11.385Z,100.00
2023-02-14T22:42:39.540Z,100.00
2023-02-14T22:45:08.880Z,100.00
2023-02-14T22:47:38.368Z,100.00
2023-02-14T22:50:07.806Z,100.00
2023-02-14T22:52:35.982Z,100.00
2023-02-14T22:55:04.242Z,100.00
2023-02-14T22:57:33.207Z,100.00
2023-02-14T23:00:01.281Z,100.00
2023-02-14T23:02:29.440Z,100.00
2023-02-14T23:04:59.095Z,100.00
2023-02-14T23:07:27.267Z,100.00
2023-02-14T23:09:55.358Z,100.00
2023-02-14T23:12:40.675Z,100.00
2023-02-14T23:15:28.264Z,100.00
2023-02-14T23:18:13.525Z,100.00
2023-02-14T23:21:00.309Z,100.00
2023-02-14T23:23:32.156Z,100.00
2023-02-14T23:26:01.329Z,100.00
2023-02-14T23:28:29.678Z,100.00
2023-02-14T23:31:01.449Z,100.00
2023-02-14T23:33:29.596Z,100.00
2023-02-14T23:36:04.125Z,100.00
2023-02-14T23:38:32.225Z,100.00
2023-02-14T23:41:27.654Z,100.00
2023-02-14T23:43:55.728Z,100.00
2023-02-14T23:46:24.086Z,100.00
2023-02-14T23:48:52.204Z,100.00
2023-02-14T23:51:21.676Z,100.00
2023-02-14T23:53:49.807Z,100.00
2023-02-14T23:56:17.981Z,100.00
2023-02-14T23:58:46.052Z,100.00
